createdAt,value
2018-09-20T00:00:30.646Z,98.53
2018-09-20T00:01:30.572Z,99.77
2018-09-20T00:02:30.496Z,98.77
2018-09-20T00:03:30.431Z,98.82
2018-09-20T00:04:30.348Z,99.99
2018-09-20T00:05:30.272Z,99.10
2018-09-20T00:06:30.198Z,99.05
2018-09-20T00:07:30.122Z,98.29
2018-09-20T00:08:30.051Z,99.10
2018-09-20T00:09:29.974Z,98.82
2018-09-20T00:10:29.900Z,99.96
2018-09-20T00:11:29.826Z,99.05
2018-09-20T00:12:29.756Z,98.43
2018-09-20T00:13:29.676Z,98.62
2018-09-20T00:14:29.604Z,98.53
2018-09-20T00:17:01.572Z,98.43
2018-09-20T00:18:01.453Z,98.05
2018-09-20T00:20:05.800Z,97.76
2018-09-20T00:21:05.684Z,98.05
2018-09-20T00:22:05.602Z,97.76
2018-09-20T00:23:05.530Z,98.24
2018-09-20T00:24:05.486Z,98.43
2018-09-20T00:25:05.379Z,98.72
2018-09-20T00:26:05.304Z,98.43
2018-09-20T00:27:05.229Z,98.24
2018-09-20T00:28:05.154Z,98.91
2018-09-20T00:29:05.081Z,98.72
2018-09-20T00:30:05.004Z,99.01
2018-09-20T00:31:04.940Z,97.66
2018-09-20T00:32:04.857Z,98.43
2018-09-20T00:33:04.781Z,98.91
2018-09-20T00:34:04.706Z,98.53
2018-09-20T00:35:04.633Z,99.68
2018-09-20T00:36:04.564Z,98.72
2018-09-20T00:37:04.484Z,98.43
2018-09-20T00:38:04.408Z,98.53
2018-09-20T00:39:04.343Z,99.58
2018-09-20T00:40:04.259Z,99.10
2018-09-20T00:41:04.187Z,98.72
2018-09-20T00:42:04.113Z,98.72
2018-09-20T00:43:04.036Z,99.68
2018-09-20T00:44:03.961Z,98.82
2018-09-20T00:45:03.897Z,99.58
2018-09-20T00:46:03.813Z,99.99
2018-09-20T00:47:03.735Z,99.49
2018-09-20T00:48:03.663Z,98.72
2018-09-20T00:49:03.599Z,99.01
2018-09-20T00:50:03.514Z,99.01
2018-09-20T00:51:03.438Z,99.01
2018-09-20T00:52:03.365Z,99.10
2018-09-20T00:53:03.292Z,99.01
2018-09-20T00:54:03.219Z,98.43
2018-09-20T00:55:03.143Z,98.82
2018-09-20T00:56:03.071Z,98.05
2018-09-20T00:57:02.993Z,97.86
2018-09-20T00:58:02.916Z,98.82
2018-09-20T00:59:02.841Z,98.82
2018-09-20T01:00:02.768Z,98.24
2018-09-20T01:01:02.693Z,98.72
2018-09-20T01:02:02.616Z,99.29
2018-09-20T01:03:02.543Z,99.99
2018-09-20T01:04:02.470Z,99.99
2018-09-20T01:05:02.400Z,98.91
2018-09-20T01:06:02.321Z,98.62
2018-09-20T01:07:02.248Z,99.99
2018-09-20T01:08:02.170Z,99.77
2018-09-20T01:09:02.095Z,99.99
2018-09-20T01:10:02.021Z,99.77
2018-09-20T01:11:01.947Z,99.99
2018-09-20T01:12:01.875Z,99.99
2018-09-20T01:13:01.799Z,99.99
2018-09-20T01:14:01.724Z,99.99
2018-09-20T01:15:01.649Z,99.99
2018-09-20T01:16:01.572Z,99.99
2018-09-20T01:17:01.501Z,99.99
2018-09-20T01:18:01.423Z,99.49
2018-09-20T01:19:01.353Z,99.99
2018-09-20T01:20:01.279Z,98.82
2018-09-20T01:21:01.209Z,99.77
2018-09-20T01:22:01.144Z,99.10
2018-09-20T01:23:01.053Z,99.77
2018-09-20T01:24:00.985Z,98.82
2018-09-20T01:25:00.903Z,98.82
2018-09-20T01:26:00.829Z,97.86
2018-09-20T01:27:00.752Z,98.82
2018-09-20T01:28:00.678Z,98.53
2018-09-20T01:29:00.604Z,98.62
2018-09-20T01:30:00.531Z,99.10
2018-09-20T01:31:00.454Z,98.62
2018-09-20T01:32:00.380Z,97.56
2018-09-20T01:33:00.304Z,97.38
2018-09-20T01:34:00.231Z,97.28
2018-09-20T01:35:00.155Z,98.53
2018-09-20T01:36:00.086Z,98.82
2018-09-20T01:37:00.016Z,98.33
2018-09-20T01:37:59.934Z,97.95
2018-09-20T01:38:59.857Z,99.10
2018-09-20T01:39:59.784Z,98.33
2018-09-20T01:40:59.711Z,99.10
2018-09-20T01:41:59.635Z,99.39
2018-09-20T01:42:59.559Z,99.10
2018-09-20T01:43:59.485Z,99.01
2018-09-20T01:44:59.423Z,99.58
2018-09-20T01:45:59.335Z,99.49
2018-09-20T01:46:59.261Z,99.39
2018-09-20T01:47:59.186Z,99.49
2018-09-20T01:48:59.113Z,99.68
2018-09-20T01:49:59.038Z,99.49
2018-09-20T01:50:58.961Z,99.58
2018-09-20T01:51:58.895Z,99.68
2018-09-20T01:52:58.816Z,99.01
2018-09-20T01:53:58.745Z,98.82
2018-09-20T01:54:58.664Z,98.82
2018-09-20T01:55:58.587Z,99.20
2018-09-20T01:56:58.515Z,98.43
2018-09-20T01:57:58.441Z,98.43
2018-09-20T01:58:58.367Z,98.72
2018-09-20T01:59:58.290Z,98.82
2018-09-20T02:00:58.225Z,97.86
2018-09-20T02:01:58.140Z,97.28
2018-09-20T02:02:58.066Z,98.43
2018-09-20T02:03:57.992Z,98.62
2018-09-20T02:04:57.921Z,98.62
2018-09-20T02:05:57.841Z,99.10
2018-09-20T02:06:57.766Z,98.82
2018-09-20T02:07:57.691Z,98.91
2018-09-20T02:08:57.622Z,98.62
2018-09-20T02:09:57.544Z,99.10
2018-09-20T02:10:57.469Z,98.72
2018-09-20T02:11:57.398Z,98.91
2018-09-20T02:12:57.319Z,97.95
2018-09-20T02:13:57.254Z,97.76
2018-09-20T02:14:57.171Z,98.72
2018-09-20T02:15:57.097Z,97.66
2018-09-20T02:16:57.020Z,98.82
2018-09-20T02:17:56.945Z,98.82
2018-09-20T02:18:56.870Z,99.39
2018-09-20T02:19:56.802Z,98.72
2018-09-20T02:20:56.725Z,98.53
2018-09-20T02:21:56.646Z,98.62
2018-09-20T02:22:56.574Z,98.62
2018-09-20T02:23:56.499Z,97.95
2018-09-20T02:24:56.428Z,98.33
2018-09-20T02:25:56.349Z,98.82
2018-09-20T02:26:56.283Z,98.14
2018-09-20T02:27:56.200Z,98.82
2018-09-20T02:28:56.132Z,98.62
2018-09-20T02:29:56.052Z,97.47
2018-09-20T02:30:55.979Z,97.28
2018-09-20T02:31:55.902Z,97.38
2018-09-20T02:32:55.826Z,97.19
2018-09-20T02:33:55.758Z,97.28
2018-09-20T02:34:55.686Z,97.66
2018-09-20T02:35:55.602Z,96.70
2018-09-20T02:36:55.528Z,97.76
2018-09-20T02:37:55.456Z,97.19
2018-09-20T02:38:55.382Z,96.32
2018-09-20T02:39:55.306Z,97.95
2018-09-20T02:40:55.229Z,96.89
2018-09-20T02:41:55.156Z,97.09
2018-09-20T02:42:55.087Z,96.32
2018-09-20T02:43:55.009Z,96.32
2018-09-20T02:44:54.932Z,97.66
2018-09-20T02:45:54.854Z,96.51
2018-09-20T02:46:54.781Z,97.38
2018-09-20T02:47:54.712Z,97.47
2018-09-20T02:48:54.632Z,97.66
2018-09-20T02:49:54.557Z,97.76
2018-09-20T02:50:54.480Z,97.19
2018-09-20T02:51:54.421Z,96.80
2018-09-20T02:52:54.332Z,96.51
2018-09-20T02:53:54.276Z,97.38
2018-09-20T02:54:54.183Z,97.66
2018-09-20T02:55:54.108Z,97.47
2018-09-20T02:56:54.037Z,97.38
2018-09-20T02:57:53.963Z,97.95
2018-09-20T02:58:53.911Z,98.43
2018-09-20T02:59:53.811Z,97.56
2018-09-20T03:00:53.736Z,97.47
2018-09-20T03:01:53.662Z,97.86
2018-09-20T03:02:53.586Z,97.86
2018-09-20T03:03:53.511Z,96.70
2018-09-20T03:04:53.438Z,96.70
2018-09-20T03:05:53.362Z,96.89
2018-09-20T03:06:53.288Z,96.80
2018-09-20T03:07:53.212Z,96.13
2018-09-20T03:08:53.152Z,95.65
2018-09-20T03:09:53.064Z,96.03
2018-09-20T03:10:52.986Z,95.94
2018-09-20T03:11:52.917Z,94.69
2018-09-20T03:12:52.837Z,94.31
2018-09-20T03:13:52.763Z,95.26
2018-09-20T03:14:52.687Z,94.40
2018-09-20T03:15:52.616Z,94.02
2018-09-20T03:16:52.541Z,94.31
2018-09-20T03:17:52.462Z,93.25
2018-09-20T03:18:52.397Z,93.82
2018-09-20T03:19:52.316Z,94.31
2018-09-20T03:20:52.241Z,94.49
2018-09-20T03:21:52.164Z,94.59
2018-09-20T03:22:52.092Z,93.35
2018-09-20T03:23:52.016Z,94.21
2018-09-20T03:24:51.942Z,93.54
2018-09-20T03:25:51.866Z,93.82
2018-09-20T03:26:51.794Z,93.44
2018-09-20T03:27:51.716Z,93.44
2018-09-20T03:28:51.642Z,94.21
2018-09-20T03:29:51.568Z,92.86
2018-09-20T03:30:51.646Z,92.58
2018-09-20T03:31:51.418Z,93.25
2018-09-20T03:32:51.347Z,94.40
2018-09-20T03:33:51.268Z,93.44
2018-09-20T03:34:51.197Z,93.21
2018-09-20T03:35:51.119Z,92.82
2018-09-20T03:36:51.046Z,92.68
2018-09-20T03:37:50.970Z,92.15
2018-09-20T03:38:50.894Z,92.72
2018-09-20T03:39:50.823Z,91.86
2018-09-20T03:40:50.748Z,92.10
2018-09-20T03:41:50.676Z,91.72
2018-09-20T03:42:50.596Z,92.00
2018-09-20T03:43:50.523Z,93.44
2018-09-20T03:44:50.447Z,93.15
2018-09-20T03:45:50.371Z,92.77
2018-09-20T03:46:50.299Z,92.58
2018-09-20T03:47:50.220Z,93.30
2018-09-20T03:48:50.145Z,93.63
2018-09-20T03:49:50.071Z,93.49
2018-09-20T03:50:50.014Z,93.25
2018-09-20T03:51:49.921Z,94.02
2018-09-20T03:52:49.845Z,93.35
2018-09-20T03:53:49.772Z,92.86
2018-09-20T03:54:49.703Z,92.86
2018-09-20T03:55:49.621Z,93.35
2018-09-20T03:56:49.549Z,93.54
2018-09-20T03:57:49.473Z,93.40
2018-09-20T03:58:49.398Z,92.00
2018-09-20T03:59:49.323Z,93.97
2018-09-20T04:00:49.247Z,94.98
2018-09-20T04:01:49.174Z,94.31
2018-09-20T04:02:49.099Z,94.40
2018-09-20T04:03:49.022Z,92.48
2018-09-20T04:04:48.949Z,93.25
2018-09-20T04:05:48.872Z,91.48
2018-09-20T04:06:48.806Z,92.86
2018-09-20T04:07:48.728Z,92.63
2018-09-20T04:08:48.660Z,92.63
2018-09-20T04:09:48.642Z,91.72
2018-09-20T04:10:48.500Z,91.67
2018-09-20T04:11:48.424Z,90.90
2018-09-20T04:12:48.350Z,92.00
2018-09-20T04:13:48.272Z,91.19
2018-09-20T04:14:48.203Z,91.28
2018-09-20T04:15:48.128Z,91.52
2018-09-20T04:16:48.050Z,92.29
2018-09-20T04:17:47.978Z,91.09
2018-09-20T04:18:47.898Z,91.05
2018-09-20T04:19:47.827Z,91.19
2018-09-20T04:20:47.751Z,91.05
2018-09-20T04:21:47.675Z,92.86
2018-09-20T04:22:47.602Z,91.96
2018-09-20T04:23:47.526Z,91.57
2018-09-20T04:24:47.454Z,92.05
2018-09-20T04:25:47.377Z,91.14
2018-09-20T04:26:47.304Z,91.72
2018-09-20T04:27:47.228Z,91.91
2018-09-20T04:28:47.155Z,91.91
2018-09-20T04:29:47.077Z,92.00
2018-09-20T04:30:47.004Z,92.00
2018-09-20T04:31:47.027Z,92.77
2018-09-20T04:32:46.855Z,92.77
2018-09-20T04:33:46.788Z,92.00
2018-09-20T04:34:46.704Z,93.25
2018-09-20T04:35:46.629Z,92.10
2018-09-20T04:36:46.554Z,92.72
2018-09-20T04:37:46.479Z,93.25
2018-09-20T04:38:46.404Z,90.37
2018-09-20T04:39:46.331Z,92.39
2018-09-20T04:40:46.256Z,91.19
2018-09-20T04:41:46.179Z,91.05
2018-09-20T04:42:46.106Z,91.09
2018-09-20T04:43:46.041Z,90.56
2018-09-20T04:44:45.957Z,90.37
2018-09-20T04:45:45.892Z,89.89
2018-09-20T04:46:45.804Z,89.22
2018-09-20T04:47:45.730Z,89.37
2018-09-20T04:48:45.659Z,89.51
2018-09-20T04:49:45.586Z,88.79
2018-09-20T04:50:45.506Z,89.47
2018-09-20T04:51:45.432Z,89.37
2018-09-20T04:52:45.358Z,90.75
2018-09-20T04:53:45.285Z,89.99
2018-09-20T04:54:45.208Z,90.75
2018-09-20T04:55:45.148Z,91.00
2018-09-20T04:56:45.060Z,92.10
2018-09-20T04:57:44.984Z,92.77
2018-09-20T04:58:44.908Z,92.00
2018-09-20T04:59:44.850Z,91.05
2018-09-20T05:00:44.760Z,90.18
2018-09-20T05:01:44.685Z,90.37
2018-09-20T05:02:44.614Z,90.08
2018-09-20T05:03:44.536Z,89.79
2018-09-20T05:04:44.462Z,91.05
2018-09-20T05:05:44.393Z,91.33
2018-09-20T05:06:44.311Z,90.18
2018-09-20T05:07:44.236Z,90.66
2018-09-20T05:08:44.161Z,91.24
2018-09-20T05:09:44.087Z,90.47
2018-09-20T05:10:44.017Z,89.08
2018-09-20T05:11:43.937Z,90.23
2018-09-20T05:12:43.862Z,89.41
2018-09-20T05:13:43.784Z,89.12
2018-09-20T05:14:43.756Z,90.28
2018-09-20T05:15:43.636Z,90.56
2018-09-20T05:16:43.565Z,90.08
2018-09-20T05:17:43.487Z,89.22
2018-09-20T05:18:43.412Z,89.12
2018-09-20T05:19:43.337Z,89.18
2018-09-20T05:20:43.264Z,89.51
2018-09-20T05:21:43.187Z,90.04
2018-09-20T05:22:43.112Z,90.28
2018-09-20T05:23:43.037Z,91.05
2018-09-20T05:24:42.962Z,89.61
2018-09-20T05:25:42.893Z,89.94
2018-09-20T05:26:42.812Z,89.27
2018-09-20T05:27:42.736Z,90.23
2018-09-20T05:28:42.661Z,90.04
2018-09-20T05:29:42.590Z,91.00
2018-09-20T05:30:42.512Z,90.08
2018-09-20T05:31:42.441Z,89.32
2018-09-20T05:32:42.363Z,90.18
2018-09-20T05:33:42.292Z,89.89
2018-09-20T05:34:42.213Z,89.41
2018-09-20T05:35:42.141Z,89.32
2018-09-20T05:36:42.063Z,90.37
2018-09-20T05:37:41.987Z,90.75
2018-09-20T05:38:41.924Z,90.08
2018-09-20T05:39:41.840Z,90.47
2018-09-20T05:40:41.765Z,91.05
2018-09-20T05:41:41.689Z,90.18
2018-09-20T05:42:41.645Z,90.37
2018-09-20T05:43:41.573Z,91.62
2018-09-20T05:44:41.465Z,91.72
2018-09-20T05:45:41.391Z,91.24
2018-09-20T05:46:41.313Z,91.62
2018-09-20T05:47:41.239Z,90.95
2018-09-20T05:48:41.187Z,91.72
2018-09-20T05:49:41.090Z,91.72
2018-09-20T05:50:41.030Z,92.29
2018-09-20T05:51:40.947Z,91.72
2018-09-20T05:52:40.865Z,92.77
2018-09-20T05:53:40.796Z,91.05
2018-09-20T05:54:40.720Z,91.24
2018-09-20T05:55:40.644Z,90.85
2018-09-20T05:56:40.569Z,91.05
2018-09-20T05:57:40.495Z,89.22
2018-09-20T05:58:40.420Z,90.47
2018-09-20T05:59:40.344Z,90.66
2018-09-20T06:00:40.275Z,92.10
2018-09-20T06:01:40.201Z,91.91
2018-09-20T06:02:40.119Z,92.86
2018-09-20T06:03:40.059Z,92.82
2018-09-20T06:04:39.991Z,90.95
2018-09-20T06:05:39.907Z,92.14
2018-09-20T06:06:39.829Z,92.91
2018-09-20T06:07:39.746Z,93.44
2018-09-20T06:08:39.673Z,92.48
2018-09-20T06:09:39.608Z,92.82
2018-09-20T06:10:39.533Z,93.15
2018-09-20T06:11:39.451Z,92.77
2018-09-20T06:12:39.380Z,92.19
2018-09-20T06:13:39.300Z,91.96
2018-09-20T06:14:39.228Z,90.70
2018-09-20T06:15:39.153Z,90.99
2018-09-20T06:16:39.083Z,91.33
2018-09-20T06:17:39.005Z,91.96
2018-09-20T06:18:46.095Z,91.91
2018-09-20T06:20:42.834Z,92.05
2018-09-20T06:21:42.727Z,92.14
2018-09-20T06:23:46.497Z,92.05
2018-09-20T06:24:46.418Z,91.76
2018-09-20T06:25:46.343Z,91.96
2018-09-20T06:26:46.282Z,91.96
2018-09-20T06:27:46.258Z,92.91
2018-09-20T06:28:46.123Z,91.38
2018-09-20T06:29:46.050Z,91.38
2018-09-20T06:30:45.969Z,90.85
2018-09-20T06:31:45.906Z,91.76
2018-09-20T06:32:45.824Z,90.75
2018-09-20T06:33:45.754Z,91.05
2018-09-20T06:34:45.734Z,90.47
2018-09-20T06:35:45.603Z,90.56
2018-09-20T06:36:45.537Z,89.12
2018-09-20T06:37:45.458Z,90.03
2018-09-20T06:38:45.376Z,89.79
2018-09-20T06:39:45.306Z,90.47
2018-09-20T06:40:45.233Z,90.52
2018-09-20T06:41:45.153Z,90.13
2018-09-20T06:42:45.079Z,88.88
2018-09-20T06:43:45.003Z,90.52
2018-09-20T06:44:44.940Z,91.76
2018-09-20T06:45:44.858Z,90.13
2018-09-20T06:46:44.783Z,91.38
2018-09-20T06:47:44.711Z,90.42
2018-09-20T06:48:44.632Z,90.70
2018-09-20T06:49:44.563Z,91.09
2018-09-20T06:50:44.485Z,90.42
2018-09-20T06:51:44.409Z,89.12
2018-09-20T06:52:44.337Z,89.99
2018-09-20T06:53:44.263Z,90.03
2018-09-20T06:54:44.192Z,91.47
2018-09-20T06:55:44.121Z,92.05
2018-09-20T06:56:44.092Z,91.28
2018-09-20T06:57:43.966Z,91.96
2018-09-20T06:58:43.897Z,91.19
2018-09-20T06:59:43.818Z,91.09
2018-09-20T07:00:43.747Z,90.80
2018-09-20T07:01:43.675Z,90.99
2018-09-20T07:02:43.623Z,90.99
2018-09-20T07:03:43.528Z,92.33
2018-09-20T07:04:43.452Z,92.82
2018-09-20T07:05:43.377Z,92.43
2018-09-20T07:06:43.301Z,92.53
2018-09-20T07:07:43.224Z,92.05
2018-09-20T07:08:43.153Z,91.96
2018-09-20T07:09:43.080Z,91.57
2018-09-20T07:10:43.019Z,92.05
2018-09-20T07:11:42.931Z,93.01
2018-09-20T07:12:42.853Z,93.01
2018-09-20T07:13:42.867Z,93.01
2018-09-20T07:14:42.706Z,92.82
2018-09-20T07:15:42.632Z,93.01
2018-09-20T07:16:42.572Z,92.91
2018-09-20T07:17:42.486Z,93.39
2018-09-20T07:18:42.414Z,92.82
2018-09-20T07:19:42.345Z,92.05
2018-09-20T07:20:42.262Z,92.24
2018-09-20T07:21:42.190Z,91.86
2018-09-20T07:22:42.115Z,91.76
2018-09-20T07:23:42.041Z,91.66
2018-09-20T07:24:41.973Z,91.28
2018-09-20T07:25:41.939Z,93.01
2018-09-20T07:26:41.820Z,91.28
2018-09-20T07:27:41.748Z,91.90
2018-09-20T07:28:41.678Z,91.61
2018-09-20T07:29:41.598Z,92.38
2018-09-20T07:30:41.524Z,92.86
2018-09-20T07:31:41.453Z,93.15
2018-09-20T07:32:41.429Z,92.67
2018-09-20T07:33:41.300Z,92.00
2018-09-20T07:34:41.234Z,92.38
2018-09-20T07:35:41.153Z,93.34
2018-09-20T07:36:41.085Z,93.63
2018-09-20T07:37:41.011Z,94.11
2018-09-20T07:38:40.930Z,93.73
2018-09-20T07:39:40.860Z,93.54
2018-09-20T07:40:40.796Z,93.73
2018-09-20T07:41:40.709Z,94.49
2018-09-20T07:42:40.641Z,94.69
2018-09-20T07:43:40.626Z,94.11
2018-09-20T07:44:40.492Z,94.59
2018-09-20T07:45:40.420Z,94.01
2018-09-20T07:46:40.342Z,93.54
2018-09-20T07:47:40.269Z,93.49
2018-09-20T07:48:40.197Z,93.15
2018-09-20T07:49:40.124Z,93.05
2018-09-20T07:50:40.052Z,92.86
2018-09-20T07:51:39.974Z,92.29
2018-09-20T07:52:39.914Z,92.96
2018-09-20T07:53:39.914Z,92.67
2018-09-20T07:54:39.768Z,92.10
2018-09-20T07:55:39.678Z,92.29
2018-09-20T07:56:39.608Z,92.00
2018-09-20T07:57:39.530Z,92.29
2018-09-20T07:58:39.459Z,93.05
2018-09-20T07:59:39.385Z,93.73
2018-09-20T08:00:39.310Z,94.49
2018-09-20T08:01:39.303Z,94.69
2018-09-20T08:02:39.159Z,94.31
2018-09-20T08:03:39.087Z,93.34
2018-09-20T08:04:39.011Z,93.82
2018-09-20T08:05:38.938Z,93.73
2018-09-20T08:06:38.865Z,94.01
2018-09-20T08:07:38.792Z,94.45
2018-09-20T08:08:38.720Z,94.16
2018-09-20T08:09:38.647Z,93.58
2018-09-20T08:10:38.579Z,94.45
2018-09-20T08:11:38.497Z,95.12
2018-09-20T08:12:38.421Z,94.64
2018-09-20T08:13:38.347Z,94.16
2018-09-20T08:14:38.275Z,94.73
2018-09-20T08:15:38.204Z,95.60
2018-09-20T08:16:38.127Z,95.31
2018-09-20T08:17:38.060Z,94.83
2018-09-20T08:18:37.988Z,95.21
2018-09-20T08:19:37.917Z,95.70
2018-09-20T08:20:37.831Z,95.70
2018-09-20T08:21:37.819Z,95.26
2018-09-20T08:22:37.685Z,96.22
2018-09-20T08:23:37.612Z,95.17
2018-09-20T08:24:37.537Z,95.75
2018-09-20T08:25:37.470Z,95.94
2018-09-20T08:26:37.398Z,95.75
2018-09-20T08:27:37.342Z,97.67
2018-09-20T08:28:37.296Z,97.09
2018-09-20T08:29:37.169Z,97.09
2018-09-20T08:30:37.101Z,97.76
2018-09-20T08:31:37.031Z,97.67
2018-09-20T08:32:36.949Z,96.51
2018-09-20T08:33:36.875Z,96.61
2018-09-20T08:34:36.805Z,96.90
2018-09-20T08:35:36.734Z,97.81
2018-09-20T08:36:36.660Z,97.04
2018-09-20T08:37:36.630Z,96.94
2018-09-20T08:38:36.508Z,97.91
2018-09-20T08:39:36.439Z,97.14
2018-09-20T08:40:36.361Z,98.00
2018-09-20T08:41:36.291Z,97.33
2018-09-20T08:42:36.214Z,97.33
2018-09-20T08:43:36.141Z,97.52
2018-09-20T08:44:36.074Z,97.71
2018-09-20T08:45:36.004Z,97.91
2018-09-20T08:46:35.923Z,97.71
2018-09-20T08:47:35.852Z,97.52
2018-09-20T08:48:35.782Z,97.71
2018-09-20T08:49:35.704Z,97.57
2018-09-20T08:50:35.629Z,97.86
2018-09-20T08:51:35.556Z,97.47
2018-09-20T08:52:35.485Z,97.76
2018-09-20T08:53:35.412Z,97.57
2018-09-20T08:54:35.340Z,97.76
2018-09-20T08:55:35.269Z,97.47
2018-09-20T08:56:35.190Z,98.05
2018-09-20T08:57:35.122Z,98.54
2018-09-20T08:58:35.045Z,98.72
2018-09-20T08:59:34.972Z,98.92
2018-09-20T09:00:34.900Z,98.44
2018-09-20T09:01:34.830Z,97.96
2018-09-20T09:02:34.758Z,98.58
2018-09-20T09:03:34.721Z,98.10
2018-09-20T09:04:34.629Z,98.00
2018-09-20T09:05:34.541Z,98.29
2018-09-20T09:06:34.461Z,98.58
2018-09-20T09:07:34.388Z,98.19
2018-09-20T09:08:34.321Z,99.06
2018-09-20T09:09:34.249Z,98.87
2018-09-20T09:10:34.174Z,98.77
2018-09-20T09:11:34.099Z,97.91
2018-09-20T09:12:34.035Z,98.58
2018-09-20T09:13:33.958Z,98.92
2018-09-20T09:14:33.886Z,98.97
2018-09-20T09:15:33.809Z,98.63
2018-09-20T09:16:33.736Z,99.21
2018-09-20T09:17:33.663Z,99.02
2018-09-20T09:18:33.590Z,98.72
2018-09-20T09:19:33.580Z,98.72
2018-09-20T09:20:33.444Z,98.34
2018-09-20T09:21:33.379Z,98.92
2018-09-20T09:22:33.298Z,99.45
2018-09-20T09:23:33.228Z,98.77
2018-09-20T09:24:33.155Z,98.34
2018-09-20T09:25:33.170Z,98.58
2018-09-20T09:26:33.010Z,98.49
2018-09-20T09:27:32.935Z,98.87
2018-09-20T09:28:32.950Z,99.26
2018-09-20T09:29:32.796Z,98.39
2018-09-20T09:30:32.726Z,98.58
2018-09-20T09:31:32.653Z,99.35
2018-09-20T09:32:32.592Z,98.97
2018-09-20T09:33:32.503Z,98.49
2018-09-20T09:34:32.443Z,98.49
2018-09-20T09:35:32.363Z,98.39
2018-09-20T09:36:32.287Z,99.02
2018-09-20T09:37:32.218Z,98.34
2018-09-20T09:38:32.141Z,98.34
2018-09-20T09:39:32.074Z,98.44
2018-09-20T09:40:31.997Z,98.63
2018-09-20T09:41:31.925Z,98.34
2018-09-20T09:42:31.854Z,98.92
2018-09-20T09:43:31.783Z,99.21
2018-09-20T09:44:31.710Z,98.54
2018-09-20T09:45:31.638Z,97.86
2018-09-20T09:46:31.568Z,98.15
2018-09-20T09:47:31.495Z,98.05
2018-09-20T09:48:31.427Z,98.49
2018-09-20T09:49:31.355Z,98.49
2018-09-20T09:50:31.279Z,98.49
2018-09-20T09:51:31.205Z,98.20
2018-09-20T09:52:31.132Z,98.49
2018-09-20T09:53:31.063Z,97.91
2018-09-20T09:54:31.057Z,98.49
2018-09-20T09:55:30.923Z,98.39
2018-09-20T09:56:30.852Z,97.67
2018-09-20T09:57:30.777Z,97.96
2018-09-20T09:58:30.706Z,97.57
2018-09-20T09:59:30.630Z,97.67
2018-09-20T10:00:30.559Z,98.54
2018-09-20T10:01:30.490Z,97.77
2018-09-20T10:02:30.447Z,98.44
2018-09-20T10:03:30.347Z,98.05
2018-09-20T10:04:30.275Z,97.38
2018-09-20T10:05:30.204Z,97.62
2018-09-20T10:06:30.131Z,97.91
2018-09-20T10:07:30.062Z,97.24
2018-09-20T10:08:29.991Z,97.62
2018-09-20T10:09:29.920Z,97.24
2018-09-20T10:10:29.887Z,97.62
2018-09-20T10:11:29.780Z,97.57
2018-09-20T10:12:29.714Z,97.52
2018-09-20T10:13:29.687Z,97.19
2018-09-20T10:14:29.563Z,97.19
2018-09-20T10:15:29.497Z,97.28
2018-09-20T10:16:29.453Z,97.09
2018-09-20T10:17:29.352Z,97.67
2018-09-20T10:18:29.280Z,97.19
2018-09-20T10:19:29.210Z,97.38
2018-09-20T10:20:29.136Z,96.99
2018-09-20T10:21:29.114Z,96.41
2018-09-20T10:22:29.002Z,96.99
2018-09-20T10:23:28.929Z,96.89
2018-09-20T10:24:28.895Z,96.75
2018-09-20T10:25:28.786Z,96.46
2018-09-20T10:26:28.713Z,96.56
2018-09-20T10:27:28.643Z,96.75
2018-09-20T10:28:28.576Z,96.46
2018-09-20T10:29:28.555Z,96.12
2018-09-20T10:30:28.430Z,96.12
2018-09-20T10:31:28.465Z,96.51
2018-09-20T10:32:28.326Z,96.12
2018-09-20T10:33:28.222Z,96.46
2018-09-20T10:34:28.181Z,96.46
2018-09-20T10:35:28.081Z,95.68
2018-09-20T10:36:28.009Z,94.43
2018-09-20T10:37:27.943Z,95.29
2018-09-20T10:38:27.906Z,94.91
2018-09-20T10:39:27.799Z,95.39
2018-09-20T10:40:27.731Z,95.59
2018-09-20T10:41:27.660Z,95.10
2018-09-20T10:42:27.588Z,94.23
2018-09-20T10:43:27.533Z,94.67
2018-09-20T10:44:27.449Z,95.25
2018-09-20T10:45:27.383Z,94.09
2018-09-20T10:46:27.311Z,94.28
2018-09-20T10:47:27.315Z,94.86
2018-09-20T10:48:27.173Z,95.25
2018-09-20T10:49:27.101Z,94.28
2018-09-20T10:50:27.034Z,94.42
2018-09-20T10:51:26.989Z,93.45
2018-09-20T10:52:26.893Z,93.16
2018-09-20T10:53:26.827Z,93.16
2018-09-20T10:54:26.814Z,93.65
2018-09-20T10:55:26.712Z,93.35
2018-09-20T10:56:26.614Z,93.07
2018-09-20T10:57:26.545Z,92.29
2018-09-20T10:58:26.479Z,91.81
2018-09-20T10:59:26.405Z,93.02
2018-09-20T11:00:26.337Z,91.47
2018-09-20T11:01:26.268Z,90.98
2018-09-20T11:02:26.197Z,91.75
2018-09-20T11:03:26.195Z,92.92
2018-09-20T11:04:26.059Z,91.02
2018-09-20T11:05:25.992Z,92.09
2018-09-20T11:06:25.920Z,91.89
2018-09-20T11:07:25.860Z,91.12
2018-09-20T11:08:25.797Z,89.90
2018-09-20T11:09:25.720Z,91.27
2018-09-20T11:10:25.651Z,88.55
2018-09-20T11:11:25.582Z,88.55
2018-09-20T11:12:25.522Z,89.32
2018-09-20T11:13:25.440Z,90.44
2018-09-20T11:14:25.379Z,88.98
2018-09-20T11:15:25.303Z,87.91
2018-09-20T11:16:25.241Z,86.26
2018-09-20T11:17:25.165Z,86.21
2018-09-20T11:18:25.098Z,87.27
2018-09-20T11:19:25.037Z,86.69
2018-09-20T11:20:24.972Z,83.14
2018-09-20T11:21:24.896Z,81.39
2018-09-20T11:22:24.826Z,82.46
2018-09-20T11:23:24.768Z,82.37
2018-09-20T11:24:24.707Z,78.81
2018-09-20T11:25:24.737Z,79.20
2018-09-20T11:26:24.563Z,76.75
2018-09-20T11:27:24.525Z,73.32
2018-09-20T11:28:24.435Z,69.17
2018-09-20T11:29:24.382Z,68.94
2018-09-20T11:30:24.334Z,64.97
2018-09-20T11:31:24.253Z,64.55
2018-09-20T11:32:24.183Z,65.46
2018-09-20T11:33:24.129Z,60.83
2018-09-20T11:34:24.059Z,58.31
2018-09-20T11:35:24.001Z,58.44
2018-09-20T11:36:23.984Z,57.98
2018-09-20T11:37:23.878Z,55.78
2018-09-20T11:38:23.817Z,54.93
2018-09-20T11:39:23.758Z,53.19
2018-09-20T11:40:23.698Z,51.22
2018-09-20T11:41:23.640Z,50.76
2018-09-20T11:42:23.576Z,51.86
2018-09-20T11:43:23.525Z,51.00
2018-09-20T11:44:23.457Z,49.16
2018-09-20T11:45:23.398Z,48.59
2018-09-20T11:46:23.352Z,46.94
2018-09-20T11:47:23.308Z,46.47
2018-09-20T11:48:23.229Z,47.68
2018-09-20T11:49:23.167Z,46.42
2018-09-20T11:50:23.116Z,45.95
2018-09-20T11:51:23.061Z,45.38
2018-09-20T11:52:22.991Z,44.12
2018-09-20T11:53:22.934Z,42.85
2018-09-20T11:54:22.877Z,41.28
2018-09-20T11:55:22.829Z,41.30
2018-09-20T11:56:22.771Z,41.59
2018-09-20T11:57:22.714Z,40.72
2018-09-20T11:58:22.654Z,40.15
2018-09-20T11:59:22.596Z,39.48
2018-09-20T12:00:22.539Z,39.20
2018-09-20T12:01:22.531Z,38.62
2018-09-20T12:02:22.489Z,39.04
2018-09-20T12:03:22.379Z,36.86
2018-09-20T12:04:22.327Z,37.65
2018-09-20T12:05:22.266Z,37.55
2018-09-20T12:06:22.209Z,37.05
2018-09-20T12:07:22.152Z,35.47
2018-09-20T12:08:22.099Z,36.86
2018-09-20T12:09:22.043Z,35.57
2018-09-20T12:10:21.990Z,37.75
2018-09-20T12:11:21.949Z,34.56
2018-09-20T12:12:21.896Z,35.16
2018-09-20T12:13:21.826Z,36.16
2018-09-20T12:14:21.811Z,37.77
2018-09-20T12:15:21.778Z,36.20
2018-09-20T12:16:21.671Z,36.51
2018-09-20T12:17:21.614Z,36.83
2018-09-20T12:18:21.571Z,35.17
2018-09-20T12:19:21.505Z,35.10
2018-09-20T12:20:21.457Z,33.52
2018-09-20T12:21:21.394Z,33.22
2018-09-20T12:22:21.343Z,30.93
2018-09-20T12:23:21.288Z,31.73
2018-09-20T12:24:21.238Z,31.23
2018-09-20T12:25:21.251Z,32.81
2018-09-20T12:26:21.134Z,32.71
2018-09-20T12:27:21.076Z,32.41
2018-09-20T12:28:21.022Z,32.29
2018-09-20T12:29:20.970Z,32.60
2018-09-20T12:31:52.556Z,32.53
2018-09-20T12:32:52.439Z,32.44
2018-09-20T12:33:52.343Z,32.15
2018-09-20T12:34:52.297Z,31.18
2018-09-20T12:35:52.318Z,29.28
2018-09-20T12:36:52.192Z,29.90
2018-09-20T12:37:52.143Z,29.30
2018-09-20T12:38:52.172Z,30.10
2018-09-20T12:39:52.030Z,30.69
2018-09-20T12:40:51.982Z,29.90
2018-09-20T12:41:51.926Z,29.48
2018-09-20T12:42:51.939Z,30.79
2018-09-20T12:43:51.824Z,31.39
2018-09-20T12:44:51.769Z,30.21
2018-09-20T12:45:51.724Z,29.20
2018-09-20T12:46:51.669Z,29.10
2018-09-20T12:47:51.619Z,29.48
2018-09-20T12:48:51.562Z,30.28
2018-09-20T12:49:51.512Z,29.78
2018-09-20T12:50:51.467Z,29.88
2018-09-20T12:51:51.409Z,29.39
2018-09-20T12:52:51.357Z,27.59
2018-09-20T12:53:51.302Z,28.67
2018-09-20T12:54:51.250Z,29.97
2018-09-20T12:55:51.202Z,29.28
2018-09-20T12:56:51.145Z,28.58
2018-09-20T12:57:51.121Z,29.80